createdAt,value
2022-12-18T00:02:04.895Z,39.50
2022-12-18T00:04:36.444Z,38.13
2022-12-18T00:07:07.527Z,37.75
2022-12-18T00:09:40.208Z,37.42
2022-12-18T00:14:44.446Z,35.90
2022-12-18T00:17:21.763Z,38.00
2022-12-18T00:20:00.485Z,45.28
2022-12-18T00:22:39.143Z,43.67
2022-12-18T00:25:16.069Z,40.05
2022-12-18T00:27:49.910Z,40.25
2022-12-18T00:30:23.815Z,41.22
2022-12-18T00:32:54.334Z,39.55
2022-12-18T00:35:31.553Z,41.65
2022-12-18T00:38:07.549Z,40.65
2022-12-18T00:40:39.724Z,41.65
2022-12-18T00:43:12.956Z,43.30
2022-12-18T00:45:48.881Z,43.50
2022-12-18T00:48:20.722Z,42.45
2022-12-18T00:51:07.933Z,41.97
2022-12-18T00:53:46.599Z,42.95
2022-12-18T00:56:19.700Z,41.80
2022-12-18T00:58:51.462Z,40.03
2022-12-18T01:01:20.427Z,40.97
2022-12-18T01:03:55.130Z,39.63
2022-12-18T01:06:29.677Z,40.83
2022-12-18T01:08:59.630Z,38.83
2022-12-18T01:11:30.202Z,36.75
2022-12-18T01:14:01.372Z,39.97
2022-12-18T01:16:38.530Z,39.95
2022-12-18T01:19:13.955Z,40.97
2022-12-18T01:21:41.988Z,37.47
2022-12-18T01:24:16.118Z,37.33
2022-12-18T01:26:47.741Z,40.25
2022-12-18T01:29:15.943Z,36.10
2022-12-18T01:31:47.506Z,38.97
2022-12-18T01:34:18.929Z,33.50
2022-12-18T01:36:53.772Z,39.55
2022-12-18T01:39:29.948Z,35.97
2022-12-18T01:42:04.349Z,34.38
2022-12-18T01:44:53.459Z,34.78
2022-12-18T01:47:24.535Z,34.88
2022-12-18T01:50:16.899Z,33.60
2022-12-18T01:52:56.680Z,34.88
2022-12-18T01:55:32.031Z,34.55
2022-12-18T01:58:05.601Z,34.63
2022-12-18T02:00:39.832Z,35.60
2022-12-18T02:03:11.369Z,34.53
2022-12-18T02:06:00.891Z,36.40
2022-12-18T02:08:28.989Z,36.20
2022-12-18T02:11:11.296Z,34.83
2022-12-18T02:14:10.398Z,34.85
2022-12-18T02:17:15.524Z,36.42
2022-12-18T02:22:57.264Z,36.58
2022-12-18T02:25:47.947Z,35.92
2022-12-18T02:28:25.179Z,38.30
2022-12-18T02:30:57.484Z,36.38
2022-12-18T02:33:38.206Z,37.80
2022-12-18T02:36:14.080Z,38.45
2022-12-18T02:38:47.418Z,37.75
2022-12-18T02:41:18.917Z,37.27
2022-12-18T02:44:09.030Z,34.30
2022-12-18T02:46:46.357Z,34.25
2022-12-18T02:49:50.490Z,38.13
2022-12-18T02:52:46.009Z,35.72
2022-12-18T02:55:30.032Z,35.35
2022-12-18T02:58:20.756Z,35.88
2022-12-18T03:01:20.995Z,32.60
2022-12-18T03:04:06.180Z,35.47
2022-12-18T03:06:48.912Z,36.00
2022-12-18T03:09:36.806Z,36.28
2022-12-18T03:12:30.056Z,37.55
2022-12-18T03:15:17.609Z,38.40
2022-12-18T03:18:10.138Z,38.28
2022-12-18T03:20:47.438Z,36.53
2022-12-18T03:23:34.031Z,36.10
2022-12-18T03:26:22.507Z,37.53
2022-12-18T03:29:00.204Z,39.50
2022-12-18T03:31:43.548Z,35.78
2022-12-18T03:34:23.869Z,37.75
2022-12-18T03:36:55.217Z,37.55
2022-12-18T03:39:32.427Z,38.92
2022-12-18T03:42:16.790Z,35.25
2022-12-18T03:45:15.351Z,39.05
2022-12-18T03:47:53.944Z,36.78
2022-12-18T03:50:46.767Z,37.72
2022-12-18T03:53:43.791Z,41.38
2022-12-18T03:56:20.982Z,37.13
2022-12-18T03:58:51.619Z,41.20
2022-12-18T04:01:33.809Z,39.30
2022-12-18T04:04:09.957Z,38.83
2022-12-18T04:06:43.551Z,38.17
2022-12-18T04:09:17.017Z,38.58
2022-12-18T04:11:49.790Z,39.33
2022-12-18T04:14:24.311Z,39.33
2022-12-18T04:17:00.814Z,38.92
2022-12-18T04:19:35.427Z,39.75
2022-12-18T04:22:09.918Z,40.13
2022-12-18T04:24:47.143Z,38.35
2022-12-18T04:27:24.364Z,37.85
2022-12-18T04:30:01.160Z,41.05
2022-12-18T04:32:46.511Z,40.63
2022-12-18T04:35:17.376Z,39.15
2022-12-18T04:37:52.174Z,41.00
2022-12-18T04:40:20.644Z,40.45
2022-12-18T04:42:52.746Z,43.28
2022-12-18T04:45:30.657Z,40.45
2022-12-18T04:48:06.110Z,43.38
2022-12-18T04:50:36.769Z,42.58
2022-12-18T04:53:12.777Z,42.33
2022-12-18T04:55:41.872Z,44.53
2022-12-18T04:58:13.715Z,46.15
2022-12-18T05:00:45.348Z,42.55
2022-12-18T05:03:16.806Z,44.92
2022-12-18T05:05:45.184Z,45.00
2022-12-18T05:08:15.882Z,44.38
2022-12-18T05:10:45.085Z,45.97
2022-12-18T05:13:36.154Z,45.45
2022-12-18T05:16:17.098Z,45.70
2022-12-18T05:18:53.634Z,45.13
2022-12-18T05:21:26.802Z,44.78
2022-12-18T05:24:00.643Z,49.03
2022-12-18T05:26:34.905Z,46.20
2022-12-18T05:29:09.016Z,46.45
2022-12-18T05:31:41.571Z,45.67
2022-12-18T05:34:10.627Z,48.38
2022-12-18T05:36:49.621Z,45.25
2022-12-18T05:39:23.044Z,45.45
2022-12-18T05:41:56.211Z,45.78
2022-12-18T05:44:30.918Z,46.75
2022-12-18T05:46:59.420Z,46.88
2022-12-18T05:49:35.802Z,45.55
2022-12-18T05:52:06.809Z,46.08
2022-12-18T05:54:42.559Z,48.88
2022-12-18T05:57:18.958Z,47.13
2022-12-18T05:59:58.928Z,49.88
2022-12-18T06:02:29.546Z,45.45
2022-12-18T06:05:01.349Z,46.33
2022-12-18T06:07:34.899Z,50.42
2022-12-18T06:10:15.233Z,48.72
2022-12-18T06:12:46.706Z,52.40
2022-12-18T06:15:16.436Z,46.08
2022-12-18T06:17:51.412Z,48.03
2022-12-18T06:20:33.699Z,49.55
2022-12-18T06:23:07.756Z,48.15
2022-12-18T06:25:41.559Z,48.95
2022-12-18T06:28:14.902Z,50.45
2022-12-18T06:30:55.105Z,51.05
2022-12-18T06:33:29.193Z,49.10
2022-12-18T06:36:18.884Z,49.50
2022-12-18T06:38:58.649Z,48.35
2022-12-18T06:41:35.068Z,49.17
2022-12-18T06:44:07.876Z,49.15
2022-12-18T06:46:37.162Z,49.72
2022-12-18T06:49:17.257Z,48.10
2022-12-18T06:51:49.233Z,49.20
2022-12-18T06:54:27.976Z,45.08
2022-12-18T06:57:04.085Z,45.97
2022-12-18T06:59:40.101Z,49.40
2022-12-18T07:02:15.467Z,50.33
2022-12-18T07:04:45.221Z,48.05
2022-12-18T07:07:15.006Z,47.67
2022-12-18T07:09:46.099Z,49.58
2022-12-18T07:12:19.913Z,48.95
2022-12-18T07:14:48.939Z,49.70
2022-12-18T07:17:24.304Z,51.13
2022-12-18T07:19:53.681Z,49.83
2022-12-18T07:22:22.400Z,46.67
2022-12-18T07:24:50.005Z,43.20
2022-12-18T07:27:26.505Z,44.83
2022-12-18T07:30:05.436Z,45.00
2022-12-18T07:32:46.298Z,44.35
2022-12-18T07:35:24.766Z,45.40
2022-12-18T07:37:56.431Z,46.42
2022-12-18T07:40:29.769Z,45.90
2022-12-18T07:43:03.079Z,45.90
2022-12-18T07:45:34.335Z,47.10
2022-12-18T07:48:07.186Z,48.90
2022-12-18T07:50:38.891Z,46.05
2022-12-18T07:53:10.155Z,42.03
2022-12-18T07:56:05.496Z,44.83
2022-12-18T08:01:11.641Z,46.28
2022-12-18T08:03:48.489Z,45.78
2022-12-18T08:06:23.285Z,46.70
2022-12-18T08:08:59.244Z,47.40
2022-12-18T08:11:33.533Z,47.53
2022-12-18T08:14:08.859Z,48.47
2022-12-18T08:16:41.881Z,45.92
2022-12-18T08:19:10.303Z,47.33
2022-12-18T08:21:45.815Z,45.38
2022-12-18T08:24:19.238Z,45.22
2022-12-18T08:27:01.019Z,45.28
2022-12-18T08:29:41.873Z,42.10
2022-12-18T08:32:10.622Z,46.33
2022-12-18T08:34:46.954Z,44.83
2022-12-18T08:37:17.273Z,48.58
2022-12-18T08:39:45.731Z,46.78
2022-12-18T08:42:37.266Z,46.92
2022-12-18T08:45:12.002Z,46.67
2022-12-18T08:47:42.357Z,46.38
2022-12-18T08:50:13.385Z,47.10
2022-12-18T08:52:44.214Z,47.40
2022-12-18T08:55:17.291Z,51.90
2022-12-18T08:57:54.006Z,49.65
2022-12-18T09:00:22.407Z,48.65
2022-12-18T09:02:54.184Z,47.22
2022-12-18T09:05:31.143Z,47.15
2022-12-18T09:08:03.001Z,46.38
2022-12-18T09:10:43.554Z,49.50
2022-12-18T09:13:18.852Z,46.55
2022-12-18T09:15:54.396Z,50.83
2022-12-18T09:18:28.697Z,51.72
2022-12-18T09:21:03.024Z,48.08
2022-12-18T09:23:33.077Z,48.22
2022-12-18T09:26:05.454Z,47.60
2022-12-18T09:28:41.132Z,47.95
2022-12-18T09:31:28.207Z,49.25
2022-12-18T09:33:57.654Z,51.08
2022-12-18T09:36:28.617Z,49.53
2022-12-18T09:39:07.562Z,48.22
2022-12-18T09:41:58.305Z,46.67
2022-12-18T09:44:32.690Z,48.40
2022-12-18T09:47:24.361Z,46.88
2022-12-18T09:50:03.226Z,49.85
2022-12-18T09:52:53.588Z,52.22
2022-12-18T09:55:37.992Z,47.17
2022-12-18T09:58:10.759Z,48.38
2022-12-18T10:00:40.377Z,47.88
2022-12-18T10:03:18.483Z,47.53
2022-12-18T10:05:48.601Z,52.65
2022-12-18T10:08:31.447Z,52.38
2022-12-18T10:11:29.782Z,59.63
2022-12-18T10:14:09.106Z,52.13
2022-12-18T10:16:40.414Z,54.60
2022-12-18T10:19:18.146Z,53.35
2022-12-18T10:22:03.366Z,53.03
2022-12-18T10:24:42.139Z,52.33
2022-12-18T10:27:20.775Z,48.15
2022-12-18T10:29:48.668Z,46.78
2022-12-18T10:32:19.843Z,48.60
2022-12-18T10:35:00.449Z,48.92
2022-12-18T10:37:30.860Z,45.50
2022-12-18T10:40:19.847Z,50.33
2022-12-18T10:43:14.139Z,46.10
2022-12-18T10:45:42.890Z,46.95
2022-12-18T10:48:23.294Z,44.92
2022-12-18T10:51:10.780Z,45.65
2022-12-18T10:53:44.767Z,44.38
2022-12-18T10:56:21.346Z,43.25
2022-12-18T10:59:10.193Z,43.42
2022-12-18T11:01:58.070Z,47.05
2022-12-18T11:04:31.027Z,42.97
2022-12-18T11:07:05.574Z,48.40
2022-12-18T11:09:39.606Z,43.88
2022-12-18T11:12:19.645Z,44.75
2022-12-18T11:14:48.391Z,44.50
2022-12-18T11:17:32.251Z,41.25
2022-12-18T11:20:04.873Z,42.15
2022-12-18T11:22:34.777Z,43.28
2022-12-18T11:25:32.608Z,40.25
2022-12-18T11:28:25.865Z,43.55
2022-12-18T11:31:29.648Z,47.63
2022-12-18T11:36:49.687Z,50.15
2022-12-18T11:39:24.669Z,47.70
2022-12-18T11:42:09.991Z,53.40
2022-12-18T11:44:44.655Z,47.53
2022-12-18T11:47:36.838Z,49.35
2022-12-18T11:50:16.952Z,49.83
2022-12-18T11:52:44.301Z,47.83
2022-12-18T11:55:16.139Z,49.42
2022-12-18T11:58:25.218Z,49.87
2022-12-18T12:01:11.840Z,48.83
2022-12-18T12:03:41.562Z,53.45
2022-12-18T12:06:21.669Z,55.50
2022-12-18T12:08:59.512Z,52.38
2022-12-18T12:11:42.881Z,51.80
2022-12-18T12:14:35.042Z,53.88
2022-12-18T12:17:40.441Z,53.30
2022-12-18T12:20:21.296Z,52.78
2022-12-18T12:22:56.810Z,53.17
2022-12-18T12:25:36.497Z,50.75
2022-12-18T12:28:45.845Z,51.45
2022-12-18T12:31:40.257Z,53.38
2022-12-18T12:34:25.826Z,56.97
2022-12-18T12:37:20.890Z,58.92
2022-12-18T12:39:48.851Z,55.85
2022-12-18T12:42:56.288Z,56.13
2022-12-18T12:45:36.136Z,54.67
2022-12-18T12:48:05.235Z,57.85
2022-12-18T12:50:35.221Z,58.35
2022-12-18T12:53:16.243Z,61.63
2022-12-18T12:55:44.428Z,61.72
2022-12-18T12:58:33.201Z,60.60
2022-12-18T13:01:21.443Z,57.13
2022-12-18T13:04:18.388Z,61.90
2022-12-18T13:07:02.175Z,62.40
2022-12-18T13:09:36.796Z,58.50
2022-12-18T13:12:35.039Z,61.83
2022-12-18T13:15:24.763Z,61.13
2022-12-18T13:18:10.596Z,61.53
2022-12-18T13:20:50.772Z,65.53
2022-12-18T13:23:32.232Z,56.25
2022-12-18T13:26:09.176Z,55.17
2022-12-18T13:28:59.957Z,50.33
2022-12-18T13:31:44.562Z,47.95
2022-12-18T13:40:41.971Z,50.85
2022-12-18T13:43:21.535Z,53.90
2022-12-18T13:46:00.118Z,68.38
2022-12-18T13:48:30.108Z,62.67
2022-12-18T13:51:14.549Z,51.83
2022-12-18T13:54:01.638Z,50.92
2022-12-18T13:56:31.867Z,48.97
2022-12-18T13:59:24.984Z,46.58
2022-12-18T14:01:54.183Z,48.35
2022-12-18T14:04:34.277Z,49.78
2022-12-18T14:07:12.680Z,50.80
2022-12-18T14:09:49.762Z,50.53
2022-12-18T14:12:46.671Z,51.40
2022-12-18T14:15:29.762Z,53.33
2022-12-18T14:18:20.700Z,54.92
2022-12-18T14:23:44.211Z,47.90
2022-12-18T14:26:30.129Z,44.97
2022-12-18T14:29:19.769Z,42.88
2022-12-18T14:32:25.236Z,46.13
2022-12-18T14:34:58.044Z,43.05
2022-12-18T14:37:27.968Z,44.38
2022-12-18T14:40:10.529Z,46.33
2022-12-18T14:42:43.629Z,44.95
2022-12-18T14:45:41.831Z,44.90
2022-12-18T14:48:18.227Z,43.67
2022-12-18T14:53:38.890Z,41.80
2022-12-18T14:56:17.179Z,44.08
2022-12-18T14:59:24.967Z,43.38
2022-12-18T15:02:04.072Z,44.55
2022-12-18T15:04:45.001Z,45.60
2022-12-18T15:07:14.628Z,42.72
2022-12-18T15:10:02.671Z,45.70
2022-12-18T15:12:37.573Z,47.20
2022-12-18T15:15:34.079Z,50.70
2022-12-18T15:18:13.702Z,48.17
2022-12-18T15:20:54.160Z,48.70
2022-12-18T15:23:28.058Z,49.80
2022-12-18T15:26:04.369Z,49.20
2022-12-18T15:28:41.334Z,47.70
2022-12-18T15:31:09.928Z,48.92
2022-12-18T15:34:04.090Z,48.42
2022-12-18T15:36:37.435Z,52.72
2022-12-18T15:39:06.864Z,46.83
2022-12-18T15:41:36.533Z,46.15
2022-12-18T15:44:26.568Z,45.45
2022-12-18T15:46:56.402Z,45.35
2022-12-18T15:49:25.603Z,48.72
2022-12-18T15:51:57.590Z,46.80
2022-12-18T15:54:43.264Z,49.92
2022-12-18T15:57:27.447Z,48.13
2022-12-18T15:59:58.877Z,53.85
2022-12-18T16:02:29.938Z,51.85
2022-12-18T16:04:59.774Z,49.47
2022-12-18T16:07:31.542Z,49.28
2022-12-18T16:10:04.017Z,50.85
2022-12-18T16:12:31.666Z,49.33
2022-12-18T16:15:01.165Z,50.63
2022-12-18T16:17:30.995Z,49.67
2022-12-18T16:20:00.891Z,50.65
2022-12-18T16:22:31.596Z,57.03
2022-12-18T16:24:58.969Z,51.03
2022-12-18T16:27:30.987Z,52.45
2022-12-18T16:30:02.833Z,52.25
2022-12-18T16:32:32.823Z,50.08
2022-12-18T16:35:01.503Z,52.40
2022-12-18T16:37:28.919Z,48.15
2022-12-18T16:39:58.628Z,48.83
2022-12-18T16:42:25.961Z,42.35
2022-12-18T16:44:57.635Z,43.28
2022-12-18T16:47:28.270Z,45.15
2022-12-18T16:49:57.610Z,43.90
2022-12-18T16:52:25.000Z,45.13
2022-12-18T16:54:59.287Z,43.90
2022-12-18T16:57:26.855Z,42.75
2022-12-18T17:00:04.365Z,42.45
2022-12-18T17:02:35.509Z,42.35
2022-12-18T17:05:10.782Z,47.17
2022-12-18T17:07:41.429Z,49.08
2022-12-18T17:10:08.932Z,53.58
2022-12-18T17:12:39.851Z,54.00
2022-12-18T17:15:07.709Z,58.58
2022-12-18T17:17:37.897Z,52.58
2022-12-18T17:20:08.172Z,50.42
2022-12-18T17:22:37.900Z,44.88
2022-12-18T17:25:07.601Z,46.20
2022-12-18T17:27:42.187Z,45.33
2022-12-18T17:30:15.297Z,49.90
2022-12-18T17:32:44.837Z,49.28
2022-12-18T17:35:14.261Z,51.55
2022-12-18T17:37:43.980Z,49.30
2022-12-18T17:40:13.338Z,55.08
2022-12-18T17:42:43.045Z,51.40
2022-12-18T17:45:12.742Z,51.53
2022-12-18T17:47:40.224Z,51.40
2022-12-18T17:50:09.911Z,54.17
2022-12-18T17:52:37.496Z,60.08
2022-12-18T17:55:04.943Z,58.00
2022-12-18T17:57:35.281Z,52.10
2022-12-18T18:00:03.961Z,53.28
2022-12-18T18:02:36.962Z,49.80
2022-12-18T18:05:05.227Z,47.20
2022-12-18T18:07:37.456Z,47.15
2022-12-18T18:10:07.704Z,45.53
2022-12-18T18:12:56.247Z,50.47
2022-12-18T18:15:25.808Z,54.28
2022-12-18T18:17:55.336Z,48.78
2022-12-18T18:20:22.894Z,50.35
2022-12-18T18:22:55.347Z,48.55
2022-12-18T18:25:22.425Z,49.95
2022-12-18T18:27:52.550Z,49.08
2022-12-18T18:30:24.477Z,49.25
2022-12-18T18:32:59.295Z,47.88
2022-12-18T18:35:52.793Z,51.45
2022-12-18T18:38:16.669Z,46.95
2022-12-18T18:40:49.004Z,53.45
2022-12-18T18:43:18.910Z,50.10
2022-12-18T18:45:50.847Z,54.17
2022-12-18T18:48:22.973Z,50.67
2022-12-18T18:50:59.813Z,55.22
2022-12-18T18:53:35.511Z,49.38
2022-12-18T18:56:45.480Z,49.33
2022-12-18T18:58:55.978Z,51.47
2022-12-18T19:01:24.010Z,49.15
2022-12-18T19:03:58.453Z,54.05
2022-12-18T19:06:27.619Z,48.45
2022-12-18T19:09:01.430Z,48.05
2022-12-18T19:11:54.580Z,54.15
2022-12-18T19:14:27.090Z,48.88
2022-12-18T19:19:27.283Z,43.72
2022-12-18T19:24:26.920Z,46.17
2022-12-18T19:26:58.086Z,48.78
2022-12-18T19:29:25.687Z,47.05
2022-12-18T19:31:52.954Z,48.17
2022-12-18T19:34:23.078Z,50.05
2022-12-18T19:36:52.937Z,51.45
2022-12-18T19:39:26.587Z,51.08
2022-12-18T19:41:58.557Z,51.08
2022-12-18T19:44:28.525Z,53.47
2022-12-18T19:46:55.755Z,57.05
2022-12-18T19:49:25.587Z,54.85
2022-12-18T19:51:57.638Z,53.05
2022-12-18T19:56:59.361Z,51.67
2022-12-18T19:59:29.518Z,48.33
2022-12-18T20:02:01.181Z,50.08
2022-12-18T20:04:32.010Z,52.72
2022-12-18T20:07:03.230Z,49.00
2022-12-18T20:09:37.072Z,48.35
2022-12-18T20:12:05.023Z,46.22
2022-12-18T20:14:32.860Z,44.13
2022-12-18T20:17:00.594Z,40.97
2022-12-18T20:19:30.282Z,42.08
2022-12-18T20:21:59.584Z,43.08
2022-12-18T20:24:29.405Z,38.00
2022-12-18T20:27:00.995Z,44.25
2022-12-18T20:29:28.727Z,47.10
2022-12-18T20:31:56.054Z,45.72
2022-12-18T20:34:28.129Z,43.75
2022-12-18T20:36:57.851Z,43.85
2022-12-18T20:39:26.440Z,38.95
2022-12-18T20:41:56.138Z,39.17
2022-12-18T20:44:27.266Z,40.70
2022-12-18T20:47:03.374Z,40.17
2022-12-18T20:49:40.718Z,38.90
2022-12-18T20:52:14.744Z,38.67
2022-12-18T20:54:42.270Z,40.85
2022-12-18T20:57:11.707Z,39.38
2022-12-18T20:59:47.767Z,35.75
2022-12-18T21:02:17.866Z,37.13
2022-12-18T21:04:50.172Z,37.75
2022-12-18T21:07:19.641Z,34.42
2022-12-18T21:09:53.927Z,37.40
2022-12-18T21:12:52.303Z,38.10
2022-12-18T21:15:32.401Z,37.92
2022-12-18T21:18:04.401Z,36.65
2022-12-18T21:20:34.322Z,40.80
2022-12-18T21:23:15.747Z,41.63
2022-12-18T21:25:53.028Z,37.67
2022-12-18T21:28:25.710Z,38.35
2022-12-18T21:30:55.593Z,40.08
2022-12-18T21:33:27.742Z,42.10
2022-12-18T21:35:57.911Z,39.72
2022-12-18T21:38:27.734Z,38.00
2022-12-18T21:40:57.286Z,31.90
2022-12-18T21:43:43.033Z,32.70
2022-12-18T21:46:15.334Z,34.70
2022-12-18T21:48:43.425Z,27.20
2022-12-18T21:51:10.929Z,36.28
2022-12-18T21:53:42.545Z,34.40
2022-12-18T21:56:12.030Z,30.73
2022-12-18T21:58:41.226Z,34.63
2022-12-18T22:01:31.367Z,33.58
2022-12-18T22:04:09.660Z,35.63
2022-12-18T22:06:37.322Z,32.95
2022-12-18T22:09:10.501Z,33.10
2022-12-18T22:11:40.280Z,32.17
2022-12-18T22:14:07.672Z,32.47
2022-12-18T22:16:37.174Z,30.23
2022-12-18T22:19:08.162Z,33.83
2022-12-18T22:21:41.207Z,33.60
2022-12-18T22:24:14.814Z,33.00
2022-12-18T22:26:42.568Z,28.58
2022-12-18T22:29:39.313Z,30.30
2022-12-18T22:32:13.020Z,29.65
2022-12-18T22:37:11.995Z,26.85
2022-12-18T22:39:39.277Z,29.17
2022-12-18T22:42:07.329Z,27.85
2022-12-18T22:44:34.797Z,29.80
2022-12-18T22:47:07.519Z,27.85
2022-12-18T22:49:38.617Z,30.98
2022-12-18T22:52:12.256Z,28.08
2022-12-18T22:54:43.490Z,29.00
2022-12-18T22:57:10.914Z,28.13
2022-12-18T22:59:44.684Z,29.10
2022-12-18T23:02:14.418Z,31.27
2022-12-18T23:04:50.966Z,31.58
2022-12-18T23:07:23.090Z,32.45
2022-12-18T23:09:59.616Z,31.02
2022-12-18T23:12:33.494Z,32.20
2022-12-18T23:15:05.491Z,30.65
2022-12-18T23:17:35.041Z,31.10
2022-12-18T23:20:02.072Z,28.83
2022-12-18T23:22:33.673Z,32.53
2022-12-18T23:25:05.268Z,28.00
2022-12-18T23:27:40.704Z,30.88
2022-12-18T23:30:08.366Z,29.52
2022-12-18T23:32:38.704Z,28.23
2022-12-18T23:35:10.910Z,29.20
2022-12-18T23:38:00.490Z,30.13
2022-12-18T23:40:30.323Z,27.70
2022-12-18T23:43:02.265Z,26.48
2022-12-18T23:45:31.550Z,29.10
2022-12-18T23:48:06.749Z,27.77
2022-12-18T23:50:38.549Z,27.13
2022-12-18T23:53:09.825Z,25.52
2022-12-18T23:55:44.246Z,26.08
2022-12-18T23:58:19.670Z,26.08
